createdAt,value
2022-12-19T00:01:26.633Z,-0.61
2022-12-19T00:03:58.420Z,-0.56
2022-12-19T00:06:25.640Z,-0.57
2022-12-19T00:08:53.654Z,-0.50
2022-12-19T00:11:23.106Z,-0.59
2022-12-19T00:13:49.905Z,-0.57
2022-12-19T00:16:19.821Z,-0.58
2022-12-19T00:18:48.812Z,-0.42
2022-12-19T00:21:17.705Z,-0.38
2022-12-19T00:23:45.614Z,-0.36
2022-12-19T00:26:13.333Z,-0.41
2022-12-19T00:28:40.888Z,-0.27
2022-12-19T00:31:07.403Z,-0.26
2022-12-19T00:33:34.343Z,-0.35
2022-12-19T00:36:07.282Z,-0.30
2022-12-19T00:38:34.405Z,-0.19
2022-12-19T00:41:32.124Z,-0.07
2022-12-19T00:44:00.898Z,-0.04
2022-12-19T00:46:28.720Z,0.03
2022-12-19T00:48:55.496Z,0.04
2022-12-19T00:51:25.064Z,0.03
2022-12-19T00:53:53.807Z,0.04
2022-12-19T00:56:26.807Z,0.01
2022-12-19T00:58:54.615Z,0.01
2022-12-19T01:01:33.333Z,-0.11
2022-12-19T01:06:47.259Z,0.27
2022-12-19T01:09:14.755Z,0.15
2022-12-19T01:12:00.002Z,0.19
2022-12-19T01:14:26.653Z,0.14
2022-12-19T01:16:53.046Z,0.10
2022-12-19T01:19:20.250Z,0.31
2022-12-19T01:21:46.835Z,0.29
2022-12-19T01:24:13.919Z,0.31
2022-12-19T01:26:45.832Z,0.28
2022-12-19T01:29:12.396Z,0.28
2022-12-19T01:31:39.009Z,0.30
2022-12-19T01:34:06.797Z,0.45
2022-12-19T01:36:34.687Z,0.49
2022-12-19T01:39:05.137Z,0.43
2022-12-19T01:41:31.645Z,0.15
2022-12-19T01:44:01.936Z,0.46
2022-12-19T01:46:40.213Z,0.40
2022-12-19T01:49:19.133Z,0.31
2022-12-19T01:51:51.095Z,0.40
2022-12-19T01:54:22.497Z,0.53
2022-12-19T01:56:51.973Z,0.59
2022-12-19T01:59:28.385Z,0.54
2022-12-19T02:02:00.493Z,0.71
2022-12-19T02:04:32.524Z,0.95
2022-12-19T02:07:15.321Z,0.79
2022-12-19T02:09:45.119Z,0.89
2022-12-19T02:12:11.775Z,1.03
2022-12-19T02:14:38.540Z,0.80
2022-12-19T02:17:33.004Z,0.71
2022-12-19T02:20:17.736Z,0.94
2022-12-19T02:23:16.548Z,1.04
2022-12-19T02:25:56.843Z,0.82
2022-12-19T02:28:46.211Z,1.09
2022-12-19T02:31:21.803Z,0.91
2022-12-19T02:34:23.785Z,0.95
2022-12-19T02:36:57.435Z,0.83
2022-12-19T02:39:39.392Z,1.14
2022-12-19T02:42:09.826Z,1.30
2022-12-19T02:44:45.165Z,1.44
2022-12-19T02:47:13.494Z,1.39
2022-12-19T02:49:40.266Z,1.36
2022-12-19T02:52:32.922Z,1.41
2022-12-19T02:55:13.548Z,1.41
2022-12-19T02:58:10.788Z,1.30
2022-12-19T03:00:49.054Z,1.60
2022-12-19T03:03:37.689Z,1.25
2022-12-19T03:06:14.075Z,1.49
2022-12-19T03:08:53.907Z,1.38
2022-12-19T03:11:22.784Z,1.38
2022-12-19T03:14:00.465Z,1.28
2022-12-19T03:16:27.404Z,1.39
2022-12-19T03:18:54.478Z,1.65
2022-12-19T03:21:27.366Z,1.44
2022-12-19T03:23:55.596Z,1.29
2022-12-19T03:26:26.584Z,1.52
2022-12-19T03:29:01.738Z,1.89
2022-12-19T03:31:32.437Z,1.71
2022-12-19T03:34:08.680Z,1.52
2022-12-19T03:36:41.437Z,1.65
2022-12-19T03:39:11.106Z,1.71
2022-12-19T03:41:58.214Z,1.79
2022-12-19T03:44:28.520Z,1.79
2022-12-19T03:47:00.137Z,1.77
2022-12-19T03:49:26.912Z,1.73
2022-12-19T03:52:03.256Z,2.03
2022-12-19T03:55:10.244Z,1.80
2022-12-19T03:57:47.706Z,1.77
2022-12-19T04:00:17.646Z,2.11
2022-12-19T04:02:50.329Z,2.14
2022-12-19T04:05:26.093Z,1.67
2022-12-19T04:07:57.005Z,1.83
2022-12-19T04:10:26.494Z,1.67
2022-12-19T04:13:19.375Z,1.86
2022-12-19T04:16:27.586Z,1.72
2022-12-19T04:19:03.182Z,1.71
2022-12-19T04:21:40.364Z,1.53
2022-12-19T04:24:13.120Z,1.87
2022-12-19T04:26:48.622Z,1.86
2022-12-19T04:29:15.951Z,2.19
2022-12-19T04:31:43.657Z,2.41
2022-12-19T04:34:10.347Z,2.58
2022-12-19T04:36:36.878Z,2.37
2022-12-19T04:39:03.976Z,2.62
2022-12-19T04:41:30.388Z,2.67
2022-12-19T04:43:56.781Z,2.33
2022-12-19T04:46:23.375Z,2.60
2022-12-19T04:48:49.902Z,2.54
2022-12-19T04:51:16.420Z,2.28
2022-12-19T04:53:42.882Z,2.26
2022-12-19T04:56:09.616Z,2.29
2022-12-19T04:58:36.248Z,2.23
2022-12-19T05:01:07.694Z,2.09
2022-12-19T05:03:34.990Z,2.39
2022-12-19T05:06:10.397Z,2.12
2022-12-19T05:08:38.714Z,2.85
2022-12-19T05:11:05.873Z,2.60
2022-12-19T05:13:32.782Z,2.95
2022-12-19T05:16:01.446Z,2.64
2022-12-19T05:18:28.767Z,2.39
2022-12-19T05:20:55.991Z,2.14
2022-12-19T05:23:23.074Z,2.25
2022-12-19T05:25:50.035Z,2.55
2022-12-19T05:28:17.135Z,2.40
2022-12-19T05:30:47.754Z,2.48
2022-12-19T05:33:17.159Z,2.74
2022-12-19T05:35:43.862Z,2.83
2022-12-19T05:38:10.457Z,2.57
2022-12-19T05:40:36.915Z,2.19
2022-12-19T05:43:03.823Z,2.13
2022-12-19T05:45:30.315Z,2.28
2022-12-19T05:48:01.195Z,2.94
2022-12-19T05:50:28.227Z,2.76
2022-12-19T05:52:54.613Z,2.92
2022-12-19T05:55:21.053Z,2.84
2022-12-19T05:57:47.646Z,3.34
2022-12-19T06:00:15.179Z,3.00
2022-12-19T06:02:42.312Z,2.78
2022-12-19T06:05:09.168Z,3.03
2022-12-19T06:07:35.668Z,3.00
2022-12-19T06:10:02.228Z,3.35
2022-12-19T06:12:28.616Z,3.29
2022-12-19T06:14:56.129Z,3.06
2022-12-19T06:17:22.994Z,3.04
2022-12-19T06:19:49.409Z,3.46
2022-12-19T06:22:16.917Z,3.18
2022-12-19T06:24:43.286Z,2.92
2022-12-19T06:27:09.934Z,3.56
2022-12-19T06:29:36.407Z,3.54
2022-12-19T06:32:02.884Z,3.62
2022-12-19T06:35:02.349Z,3.38
2022-12-19T06:37:15.724Z,3.50
2022-12-19T06:39:42.157Z,3.61
2022-12-19T06:42:24.949Z,3.25
2022-12-19T06:44:54.188Z,3.47
2022-12-19T06:47:22.191Z,3.17
2022-12-19T06:49:49.049Z,2.91
2022-12-19T06:52:16.353Z,3.39
2022-12-19T06:54:42.779Z,3.32
2022-12-19T06:57:09.172Z,3.41
2022-12-19T06:59:35.608Z,3.63
2022-12-19T07:02:27.768Z,3.34
2022-12-19T07:05:04.299Z,3.69
2022-12-19T07:07:30.875Z,3.64
2022-12-19T07:09:57.502Z,3.22
2022-12-19T07:12:23.880Z,3.85
2022-12-19T07:14:53.725Z,3.43
2022-12-19T07:17:22.194Z,3.33
2022-12-19T07:19:48.663Z,3.30
2022-12-19T07:22:15.198Z,3.92
2022-12-19T07:24:41.723Z,3.70
2022-12-19T07:27:08.234Z,3.65
2022-12-19T07:29:34.654Z,3.47
2022-12-19T07:32:01.090Z,3.09
2022-12-19T07:34:27.567Z,3.93
2022-12-19T07:36:54.082Z,3.61
2022-12-19T07:39:21.809Z,3.58
2022-12-19T07:41:48.346Z,3.70
2022-12-19T07:44:16.480Z,3.82
2022-12-19T07:46:43.394Z,3.86
2022-12-19T07:49:09.904Z,3.97
2022-12-19T07:51:36.390Z,3.58
2022-12-19T07:54:05.988Z,3.80
2022-12-19T07:56:32.535Z,4.33
2022-12-19T07:58:59.083Z,3.96
2022-12-19T08:01:28.289Z,4.17
2022-12-19T08:03:55.959Z,4.37
2022-12-19T08:06:23.408Z,4.43
2022-12-19T08:08:50.226Z,3.87
2022-12-19T08:11:19.701Z,3.64
2022-12-19T08:13:46.964Z,3.71
2022-12-19T08:16:14.056Z,3.75
2022-12-19T08:18:40.705Z,3.69
2022-12-19T08:21:08.360Z,3.66
2022-12-19T08:23:35.099Z,3.68
2022-12-19T08:26:07.175Z,3.90
2022-12-19T08:28:35.743Z,4.04
2022-12-19T08:31:17.380Z,3.58
2022-12-19T08:33:44.919Z,4.28
2022-12-19T08:36:14.273Z,4.19
2022-12-19T08:38:41.152Z,4.23
2022-12-19T08:41:08.361Z,4.56
2022-12-19T08:43:35.097Z,4.52
2022-12-19T08:46:01.767Z,4.33
2022-12-19T08:48:28.369Z,4.12
2022-12-19T08:50:56.802Z,4.13
2022-12-19T08:53:26.646Z,4.04
2022-12-19T08:56:01.645Z,4.13
2022-12-19T08:58:30.261Z,4.22
2022-12-19T09:01:06.301Z,3.94
2022-12-19T09:03:38.105Z,4.33
2022-12-19T09:06:19.921Z,4.77
2022-12-19T09:08:46.928Z,4.80
2022-12-19T09:11:16.482Z,4.45
2022-12-19T09:13:45.002Z,4.63
2022-12-19T09:16:15.583Z,4.67
2022-12-19T09:18:48.406Z,4.41
2022-12-19T09:21:16.154Z,4.57
2022-12-19T09:23:42.896Z,4.75
2022-12-19T09:26:12.981Z,4.59
2022-12-19T09:28:40.847Z,4.43
2022-12-19T09:31:11.908Z,4.88
2022-12-19T09:33:43.316Z,4.98
2022-12-19T09:36:15.582Z,4.90
2022-12-19T09:38:42.302Z,5.14
2022-12-19T09:41:30.559Z,4.61
2022-12-19T09:44:36.170Z,4.99
2022-12-19T09:47:14.539Z,4.87
2022-12-19T09:49:44.689Z,4.92
2022-12-19T09:52:32.987Z,4.63
2022-12-19T09:55:28.141Z,4.93
2022-12-19T09:58:08.081Z,4.73
2022-12-19T10:00:40.361Z,4.87
2022-12-19T10:03:32.266Z,4.68
2022-12-19T10:07:14.004Z,4.98
2022-12-19T10:10:29.192Z,4.68
2022-12-19T10:12:50.814Z,5.11
2022-12-19T10:15:47.183Z,5.14
2022-12-19T10:18:51.156Z,5.05
2022-12-19T10:21:43.191Z,5.03
2022-12-19T10:25:08.192Z,4.78
2022-12-19T10:27:58.502Z,4.82
2022-12-19T10:30:25.720Z,4.98
2022-12-19T10:32:59.769Z,5.40
2022-12-19T10:35:33.057Z,5.26
2022-12-19T10:38:11.725Z,5.22
2022-12-19T10:40:51.957Z,5.63
2022-12-19T10:43:40.818Z,5.42
2022-12-19T10:46:41.241Z,5.36
2022-12-19T10:49:17.067Z,5.68
2022-12-19T10:51:55.536Z,5.33
2022-12-19T10:54:46.217Z,5.01
2022-12-19T10:57:27.603Z,5.28
2022-12-19T11:00:13.477Z,5.25
2022-12-19T11:02:44.720Z,5.25
2022-12-19T11:05:38.946Z,5.23
2022-12-19T11:08:08.298Z,5.31
2022-12-19T11:12:02.672Z,5.28
2022-12-19T11:18:53.577Z,5.23
2022-12-19T11:22:19.177Z,5.50
2022-12-19T11:29:27.069Z,5.73
2022-12-19T11:30:05.168Z,5.77
2022-12-19T11:30:43.541Z,5.62
2022-12-19T11:30:45.892Z,5.63
2022-12-19T11:32:32.010Z,5.35
2022-12-19T11:34:19.331Z,5.64
2022-12-19T11:37:16.981Z,5.84
2022-12-19T11:39:52.833Z,5.77
2022-12-19T11:42:37.445Z,5.71
2022-12-19T11:45:26.908Z,5.50
2022-12-19T11:48:01.992Z,5.66
2022-12-19T11:50:32.764Z,5.71
2022-12-19T11:53:18.434Z,5.57
2022-12-19T11:55:51.466Z,5.68
2022-12-19T11:58:17.932Z,5.53
2022-12-19T12:01:02.035Z,5.80
2022-12-19T12:04:01.855Z,5.80
2022-12-19T12:06:34.025Z,5.95
2022-12-19T12:12:00.409Z,5.69
2022-12-19T12:20:03.901Z,6.08
2022-12-19T12:27:07.096Z,5.81
2022-12-19T12:31:13.483Z,6.26
2022-12-19T12:31:40.357Z,6.21
2022-12-19T12:31:41.610Z,6.19
2022-12-19T12:31:42.627Z,6.19
2022-12-19T12:32:05.785Z,6.24
2022-12-19T12:35:48.803Z,6.03
2022-12-19T12:39:35.367Z,5.76
2022-12-19T12:42:20.545Z,6.01
2022-12-19T12:44:50.690Z,5.89
2022-12-19T12:47:20.538Z,5.89
2022-12-19T12:50:03.458Z,5.99
2022-12-19T12:52:35.130Z,5.92
2022-12-19T12:55:04.687Z,6.11
2022-12-19T12:57:37.064Z,6.01
2022-12-19T13:00:23.633Z,6.01
2022-12-19T13:03:12.923Z,6.07
2022-12-19T13:06:04.698Z,5.79
2022-12-19T13:08:34.437Z,6.00
2022-12-19T13:11:03.870Z,6.05
2022-12-19T13:13:51.736Z,6.37
2022-12-19T13:16:43.219Z,6.48
2022-12-19T13:19:34.907Z,6.64
2022-12-19T13:22:04.381Z,6.48
2022-12-19T13:25:00.331Z,6.43
2022-12-19T13:27:26.863Z,6.52
2022-12-19T13:30:07.926Z,6.61
2022-12-19T13:32:40.195Z,6.44
2022-12-19T13:36:35.661Z,6.35
2022-12-19T13:39:56.520Z,6.39
2022-12-19T13:41:23.246Z,6.76
2022-12-19T13:43:50.002Z,6.64
2022-12-19T13:46:31.085Z,6.64
2022-12-19T13:49:06.989Z,6.66
2022-12-19T13:51:48.692Z,6.96
2022-12-19T13:54:23.242Z,6.63
2022-12-19T13:56:51.771Z,6.51
2022-12-19T13:59:21.290Z,6.73
2022-12-19T14:01:48.683Z,6.50
2022-12-19T14:04:35.445Z,6.33
2022-12-19T14:07:21.739Z,6.38
2022-12-19T14:11:35.338Z,6.36
2022-12-19T14:13:43.628Z,6.43
2022-12-19T14:15:52.387Z,6.54
2022-12-19T14:18:44.915Z,6.31
2022-12-19T14:22:05.376Z,6.46
2022-12-19T14:24:22.433Z,6.44
2022-12-19T14:28:16.911Z,6.59
2022-12-19T14:30:30.702Z,6.64
2022-12-19T14:33:39.356Z,6.59
2022-12-19T14:36:06.159Z,6.60
2022-12-19T14:39:26.450Z,6.60
2022-12-19T14:41:46.270Z,6.47
2022-12-19T14:54:01.530Z,6.29
2022-12-19T14:54:02.261Z,6.45
2022-12-19T14:54:10.025Z,6.57
2022-12-19T14:54:40.347Z,6.45
2022-12-19T14:56:13.488Z,6.34
2022-12-19T14:58:52.098Z,6.61
2022-12-19T15:01:33.075Z,6.48
2022-12-19T15:04:53.009Z,6.69
2022-12-19T15:07:11.256Z,6.70
2022-12-19T15:11:07.400Z,6.38
2022-12-19T15:14:49.151Z,6.54
2022-12-19T15:15:58.957Z,6.53
2022-12-19T15:18:39.286Z,6.56
2022-12-19T15:21:14.597Z,6.59
2022-12-19T15:23:43.621Z,6.72
2022-12-19T15:26:15.740Z,6.81
2022-12-19T15:28:51.397Z,6.67
2022-12-19T15:31:33.003Z,6.57
2022-12-19T15:34:33.030Z,6.50
2022-12-19T15:36:45.918Z,6.57
2022-12-19T15:39:12.365Z,6.61
2022-12-19T15:41:38.806Z,6.62
2022-12-19T15:44:14.169Z,6.67
2022-12-19T15:46:48.090Z,6.62
2022-12-19T15:49:17.022Z,6.63
2022-12-19T15:51:44.119Z,6.57
2022-12-19T15:54:46.492Z,6.52
2022-12-19T15:56:57.284Z,6.61
2022-12-19T15:59:49.919Z,6.70
2022-12-19T16:02:19.164Z,6.70
2022-12-19T16:04:47.716Z,6.62
2022-12-19T16:07:19.457Z,6.61
2022-12-19T16:09:46.358Z,6.62
2022-12-19T16:12:24.396Z,6.67
2022-12-19T16:14:56.858Z,6.80
2022-12-19T16:17:25.184Z,6.73
2022-12-19T16:19:52.806Z,6.70
2022-12-19T16:22:25.166Z,6.68
2022-12-19T16:24:54.045Z,6.61
2022-12-19T16:27:27.409Z,6.49
2022-12-19T16:29:55.358Z,6.57
2022-12-19T16:32:24.174Z,6.51
2022-12-19T16:34:52.851Z,6.52
2022-12-19T16:37:19.338Z,6.52
2022-12-19T16:39:45.887Z,6.63
2022-12-19T16:42:15.310Z,6.67
2022-12-19T16:44:45.415Z,6.64
2022-12-19T16:47:17.721Z,6.58
2022-12-19T16:49:45.336Z,6.69
2022-12-19T16:52:12.268Z,6.61
2022-12-19T16:54:38.736Z,6.74
2022-12-19T16:57:14.837Z,6.88
2022-12-19T16:59:41.878Z,6.94
2022-12-19T17:02:44.557Z,6.77
2022-12-19T17:05:35.425Z,6.71
2022-12-19T17:08:02.139Z,6.85
2022-12-19T17:10:33.628Z,6.67
2022-12-19T17:13:03.198Z,6.57
2022-12-19T17:15:33.767Z,6.62
2022-12-19T17:18:02.672Z,6.67
2022-12-19T17:20:35.545Z,6.60
2022-12-19T17:23:01.932Z,6.57
2022-12-19T17:25:28.802Z,6.81
2022-12-19T17:27:56.025Z,6.91
2022-12-19T17:30:22.654Z,6.84
2022-12-19T17:32:50.974Z,6.76
2022-12-19T17:35:27.321Z,6.75
2022-12-19T17:37:57.236Z,6.87
2022-12-19T17:40:30.483Z,6.85
2022-12-19T17:42:57.599Z,6.81
2022-12-19T17:45:25.800Z,6.76
2022-12-19T17:48:00.396Z,6.58
2022-12-19T17:50:34.550Z,6.70
2022-12-19T17:53:01.304Z,6.71
2022-12-19T17:55:29.642Z,6.76
2022-12-19T17:57:57.059Z,6.67
2022-12-19T18:00:30.310Z,6.59
2022-12-19T18:03:05.175Z,6.72
2022-12-19T18:05:36.414Z,6.70
2022-12-19T18:08:03.580Z,6.81
2022-12-19T18:10:31.550Z,6.88
2022-12-19T18:12:58.307Z,6.79
2022-12-19T18:15:25.400Z,6.76
2022-12-19T18:17:53.428Z,6.93
2022-12-19T18:20:31.989Z,6.96
2022-12-19T18:23:00.390Z,6.94
2022-12-19T18:25:31.003Z,6.84
2022-12-19T18:27:58.410Z,6.75
2022-12-19T18:30:26.025Z,6.82
2022-12-19T18:33:01.424Z,6.95
2022-12-19T18:35:36.857Z,6.79
2022-12-19T18:38:12.405Z,6.57
2022-12-19T18:40:39.203Z,6.81
2022-12-19T18:43:06.307Z,6.77
2022-12-19T18:45:38.894Z,6.88
2022-12-19T18:48:14.465Z,6.77
2022-12-19T18:50:41.866Z,6.85
2022-12-19T18:53:14.223Z,6.90
2022-12-19T18:55:40.779Z,6.83
2022-12-19T18:58:07.345Z,6.76
2022-12-19T19:00:35.578Z,6.88
2022-12-19T19:03:05.260Z,6.87
2022-12-19T19:05:34.453Z,6.90
2022-12-19T19:08:12.729Z,7.12
2022-12-19T19:10:39.239Z,6.85
2022-12-19T19:13:10.146Z,6.91
2022-12-19T19:15:42.730Z,6.92
2022-12-19T19:18:09.346Z,6.87
2022-12-19T19:20:38.815Z,6.89
2022-12-19T19:23:11.483Z,7.15
2022-12-19T19:25:38.025Z,7.04
2022-12-19T19:28:05.450Z,7.12
2022-12-19T19:30:34.563Z,7.21
2022-12-19T19:33:10.431Z,7.12
2022-12-19T19:35:38.708Z,7.14
2022-12-19T19:38:08.719Z,7.19
2022-12-19T19:40:36.837Z,7.10
2022-12-19T19:43:04.179Z,7.12
2022-12-19T19:45:30.902Z,7.16
2022-12-19T19:47:57.468Z,7.11
2022-12-19T19:50:24.704Z,7.03
2022-12-19T19:52:51.251Z,7.16
2022-12-19T19:55:17.791Z,7.23
2022-12-19T19:57:45.259Z,7.29
2022-12-19T20:00:12.330Z,7.36
2022-12-19T20:02:39.116Z,7.41
2022-12-19T20:05:06.228Z,7.26
2022-12-19T20:07:32.839Z,7.34
2022-12-19T20:09:59.264Z,7.37
2022-12-19T20:12:25.734Z,7.42
2022-12-19T20:14:52.499Z,7.41
2022-12-19T20:17:19.044Z,7.22
2022-12-19T20:19:45.582Z,7.22
2022-12-19T20:22:12.001Z,7.28
2022-12-19T20:24:38.525Z,7.38
2022-12-19T20:27:04.971Z,7.37
2022-12-19T20:29:31.507Z,7.37
2022-12-19T20:31:57.979Z,7.33
2022-12-19T20:34:25.772Z,7.45
2022-12-19T20:36:52.341Z,7.36
2022-12-19T20:39:22.152Z,7.36
2022-12-19T20:41:52.914Z,7.52
2022-12-19T20:44:24.149Z,7.55
2022-12-19T20:46:51.624Z,7.50
2022-12-19T20:49:18.737Z,7.51
2022-12-19T20:51:47.652Z,7.51
2022-12-19T20:54:15.749Z,7.49
2022-12-19T20:56:42.646Z,7.46
2022-12-19T20:59:09.886Z,7.48
2022-12-19T21:01:36.445Z,7.53
2022-12-19T21:04:03.547Z,7.61
2022-12-19T21:06:30.463Z,7.60
2022-12-19T21:08:57.337Z,7.60
2022-12-19T21:11:26.154Z,7.50
2022-12-19T21:13:52.737Z,7.72
2022-12-19T21:16:22.081Z,7.61
2022-12-19T21:18:49.955Z,7.57
2022-12-19T21:21:25.662Z,7.64
2022-12-19T21:23:53.916Z,7.57
2022-12-19T21:26:22.715Z,7.58
2022-12-19T21:28:50.750Z,7.50
2022-12-19T21:31:29.287Z,7.65
2022-12-19T21:33:58.383Z,7.68
2022-12-19T21:36:26.195Z,7.70
2022-12-19T21:38:55.825Z,7.65
2022-12-19T21:41:22.586Z,7.57
2022-12-19T21:43:53.477Z,7.77
2022-12-19T21:46:22.352Z,7.60
2022-12-19T21:48:50.813Z,7.60
2022-12-19T21:51:19.825Z,7.57
2022-12-19T21:53:46.766Z,7.59
2022-12-19T21:56:25.644Z,7.70
2022-12-19T21:58:54.175Z,7.53
2022-12-19T22:01:21.026Z,7.51
2022-12-19T22:03:47.770Z,7.47
2022-12-19T22:06:27.762Z,7.59
2022-12-19T22:08:55.233Z,7.48
2022-12-19T22:11:22.028Z,7.46
2022-12-19T22:13:49.797Z,7.53
2022-12-19T22:16:17.183Z,7.50
2022-12-19T22:18:44.689Z,7.38
2022-12-19T22:21:13.356Z,7.53
2022-12-19T22:23:40.385Z,7.47
2022-12-19T22:26:17.188Z,7.41
2022-12-19T22:28:46.312Z,7.49
2022-12-19T22:31:21.865Z,7.46
2022-12-19T22:33:50.232Z,7.56
2022-12-19T22:36:23.952Z,7.54
2022-12-19T22:38:54.195Z,7.51
2022-12-19T22:41:21.265Z,7.43
2022-12-19T22:43:47.845Z,7.54
2022-12-19T22:46:19.521Z,7.41
2022-12-19T22:48:47.113Z,7.40
2022-12-19T22:51:14.930Z,7.43
2022-12-19T22:53:42.275Z,7.50
2022-12-19T22:56:13.220Z,7.55
2022-12-19T22:58:41.833Z,7.49
2022-12-19T23:01:26.616Z,7.65
2022-12-19T23:03:55.586Z,7.65
2022-12-19T23:06:23.635Z,7.61
2022-12-19T23:08:50.059Z,7.74
2022-12-19T23:11:20.032Z,7.76
2022-12-19T23:13:47.362Z,7.81
2022-12-19T23:16:13.946Z,7.73
2022-12-19T23:18:41.115Z,7.71
2022-12-19T23:21:19.239Z,7.78
2022-12-19T23:23:47.488Z,7.81
2022-12-19T23:26:23.099Z,7.70
2022-12-19T23:28:54.931Z,7.67
2022-12-19T23:31:22.161Z,7.70
2022-12-19T23:33:49.184Z,7.62
2022-12-19T23:36:15.848Z,7.63
2022-12-19T23:38:43.413Z,7.50
2022-12-19T23:41:12.927Z,7.59
2022-12-19T23:43:40.243Z,7.73
2022-12-19T23:46:08.329Z,7.63
2022-12-19T23:48:34.845Z,7.74
2022-12-19T23:51:04.099Z,7.70
2022-12-19T23:53:31.396Z,7.78
2022-12-19T23:55:58.639Z,7.74
2022-12-19T23:58:25.232Z,7.73
